Dyess Air Force Base
KDYS : rendu visible

Aérodrome :











RETROUVEZ-NOUS SUR...

 
LOGIN :

S'inscrire | Disclaimer

   EN    FR    IT 

 









Légende :    VFR   VFR Marginal   IFR   IFR Intensif   IFR Très Intensif
Visi : 
Plafond : 
>= 8 km
>= 3000ft
5 à 8 km
1000 à 3000 ft
1500m à 5 km
500 à 1000 ft
800 à 1500m
200 à 500 ft
< 800m
< 200 ft
Symboles :   Orages  Brouillard  Fortes neiges  Fortes précipitations  Vent > 20 kt






- Altitude de l'aérodrome : 1789 ft


KDYS - Dyess Air Force Base

DERNIER METAR :
  • 150656Z AUTO 22003KT 10SM CLR 03/M03 A3042 RMK AO2 SLP300 T00341026 PNO FZRANO $

METARs EXPIRÉS :
  • 150556Z AUTO 23004KT 10SM CLR 03/M02 A3043 RMK AO2 SLP306 T00311024 10090 20013 401331012 53005 PNO FZRANO $

TAF TAF KDYS
Valide du 15 à 07h jusqu'au 16 à 13h UTC


150700Z 1507/1613 VRB06KT 9999 SKC QNH3020INS TX14/1522Z TN00/1513Z



MET'MAP, la Météo Aéronautique d'un coup d'oeil ! - Copyright ORBIFLY Décembre 2007 - Disclaimer

ORBIFLY MET'MAP TEAM :

Programmation & Développement : Alexandra Zaïnal
Conception & Développement : Baudouin d'Aumeries
Co-Programmation & Développement : Marc-Olivier Méhu
Soutien technique & logistique : Manuel Goepfert

Contact : metmap@orbifly.com




SOURCES & CREDITS :

   NOAA       Earth
Advisory